Time;durP1;ratioP1;P1;durP2;ratioP2;P2;SDS_P1;SDS_P2;PMS_P1;PMS_P2;Temp;Humidity;BMP_temperature;BMP_pressure;BME280_temperature;BME280_humidity;BME280_pressure;Samples;Min_cycle;Max_cycle;Signal;HPM_P1;HPM_P2
2023/08/08 00:01:02;;;;;;;0.73;0.20;;;16.30;80.40;;;;;;4988077;28;21092;-74
2023/08/08 00:03:28;;;;;;;0.93;0.32;;;16.50;78.50;;;;;;4985887;28;20030;-73
2023/08/08 00:05:53;;;;;;;2.20;0.82;;;16.50;79.50;;;;;;4986890;28;20036;-74
2023/08/08 00:08:19;;;;;;;0.55;0.28;;;16.60;79.00;;;;;;4987068;28;21438;-74
2023/08/08 00:10:44;;;;;;;0.88;0.32;;;16.80;77.90;;;;;;4987946;28;20034;-75
2023/08/08 00:13:10;;;;;;;2.78;0.60;;;16.80;78.10;;;;;;4988796;28;20022;-74
2023/08/08 00:15:36;;;;;;;1.50;0.40;;;17.00;77.00;;;;;;4986347;28;20030;-73
2023/08/08 00:18:02;;;;;;;1.05;0.40;;;16.80;78.70;;;;;;4985141;28;20109;-74
2023/08/08 00:20:28;;;;;;;1.35;0.40;;;16.70;79.10;;;;;;4984789;28;20042;-74
2023/08/08 00:22:53;;;;;;;1.20;0.40;;;16.70;79.10;;;;;;4987010;28;20022;-74
2023/08/08 00:25:19;;;;;;;0.60;0.10;;;16.60;79.20;;;;;;4994860;28;20439;-73
2023/08/08 00:27:45;;;;;;;0.20;0.15;;;16.80;77.90;;;;;;4988331;28;20045;-74
2023/08/08 00:30:13;;;;;;;1.05;0.20;;;17.00;78.40;;;;;;4984730;28;20039;-73
2023/08/08 00:32:39;;;;;;;0.85;0.30;;;16.80;78.90;;;;;;4985176;28;20495;-74
2023/08/08 00:35:05;;;;;;;1.23;0.52;;;16.70;78.40;;;;;;4987420;28;20109;-73
2023/08/08 00:37:30;;;;;;;0.68;0.30;;;16.80;78.50;;;;;;4988003;28;20426;-74
2023/08/08 00:39:56;;;;;;;1.23;0.38;;;16.70;78.80;;;;;;4991037;28;20035;-74
2023/08/08 00:42:22;;;;;;;2.25;0.50;;;16.80;78.60;;;;;;4987566;28;20464;-74
2023/08/08 00:44:48;;;;;;;0.98;0.35;;;16.80;77.70;;;;;;4986054;28;20125;-74
2023/08/08 00:47:14;;;;;;;1.42;0.70;;;16.90;78.20;;;;;;4994411;28;20480;-73
2023/08/08 00:49:39;;;;;;;2.28;0.30;;;16.60;80.00;;;;;;4993447;28;20037;-74
2023/08/08 00:52:07;;;;;;;1.05;0.50;;;16.40;80.10;;;;;;4987497;28;20415;-74
2023/08/08 00:54:33;;;;;;;2.28;0.70;;;16.50;79.30;;;;;;4985590;28;20189;-74
2023/08/08 00:56:58;;;;;;;1.90;0.73;;;16.50;79.40;;;;;;4984227;28;26216;-74
2023/08/08 00:59:24;;;;;;;1.30;0.50;;;16.50;79.70;;;;;;4986062;28;20030;-73
2023/08/08 01:01:50;;;;;;;2.72;0.50;;;16.50;79.20;;;;;;4994918;28;20107;-74
2023/08/08 01:04:17;;;;;;;2.20;0.70;;;16.30;79.90;;;;;;4985954;28;20093;-74
2023/08/08 01:07:01;;;;;;;1.70;0.60;;;16.00;81.30;;;;;;4984558;28;20027;-74
2023/08/08 01:09:38;;;;;;;2.30;0.93;;;16.00;81.70;;;;;;4987362;28;20054;-74
2023/08/08 01:12:07;;;;;;;1.50;0.60;;;15.90;81.50;;;;;;4984181;28;20093;-73
2023/08/08 01:14:35;;;;;;;1.67;0.90;;;16.10;81.70;;;;;;4987022;28;20026;-74
2023/08/08 01:17:01;;;;;;;0.75;0.45;;;15.90;82.30;;;;;;4986506;28;20531;-74
2023/08/08 01:19:30;;;;;;;1.58;0.70;;;15.80;82.40;;;;;;4984042;28;20117;-73
2023/08/08 01:22:00;;;;;;;1.08;0.50;;;15.80;81.30;;;;;;4984036;28;20503;-73
2023/08/08 01:24:29;;;;;;;1.38;0.57;;;15.70;82.40;;;;;;4987101;28;20921;-73
2023/08/08 01:26:55;;;;;;;1.35;0.43;;;15.60;82.70;;;;;;4990492;28;20057;-73
2023/08/08 01:29:21;;;;;;;1.10;0.30;;;15.40;83.90;;;;;;4990458;28;20033;-72
2023/08/08 01:31:46;;;;;;;2.47;0.40;;;15.40;83.30;;;;;;4991342;28;20046;-73
2023/08/08 01:34:12;;;;;;;0.98;0.45;;;15.40;83.20;;;;;;4988748;28;20113;-72
2023/08/08 01:37:04;;;;;;;2.03;0.63;;;15.60;82.40;;;;;;4996619;28;20030;-72
2023/08/08 01:39:32;;;;;;;1.35;0.50;;;15.60;82.80;;;;;;4985024;28;20566;-73
2023/08/08 01:42:00;;;;;;;1.40;0.65;;;15.80;80.70;;;;;;4988391;28;20062;-73
2023/08/08 01:44:28;;;;;;;1.52;0.60;;;15.80;82.10;;;;;;4988969;28;20026;-73
2023/08/08 01:46:54;;;;;;;1.27;0.50;;;15.90;81.20;;;;;;4989245;28;20062;-73
2023/08/08 01:49:20;;;;;;;0.98;0.40;;;15.60;83.00;;;;;;4989956;28;20059;-74
2023/08/08 01:51:46;;;;;;;1.58;0.35;;;15.40;82.50;;;;;;4993489;28;20081;-73
2023/08/08 01:54:11;;;;;;;0.40;0.30;;;15.10;84.60;;;;;;4996295;28;20033;-73
2023/08/08 01:56:37;;;;;;;1.67;0.60;;;15.20;84.30;;;;;;4995115;28;20377;-73
2023/08/08 01:59:03;;;;;;;2.33;0.50;;;15.20;84.80;;;;;;4996622;28;20098;-73
2023/08/08 02:01:28;;;;;;;1.38;0.50;;;15.20;84.50;;;;;;4999520;28;20038;-73
2023/08/08 02:03:54;;;;;;;1.58;0.45;;;15.10;85.90;;;;;;4996104;28;20487;-73
2023/08/08 02:06:20;;;;;;;2.00;0.47;;;14.90;86.50;;;;;;4994102;28;20023;-72
2023/08/08 02:08:46;;;;;;;1.23;0.45;;;15.20;83.60;;;;;;5001543;28;20037;-73
2023/08/08 02:11:11;;;;;;;0.60;0.38;;;15.00;84.60;;;;;;4992928;28;20034;-73
2023/08/08 02:13:37;;;;;;;0.95;0.40;;;15.10;84.10;;;;;;4992543;28;20443;-73
2023/08/08 02:16:03;;;;;;;1.13;0.43;;;15.20;84.30;;;;;;4994738;28;20061;-74
2023/08/08 02:18:29;;;;;;;0.70;0.43;;;14.90;85.60;;;;;;5002573;28;20468;-73
2023/08/08 02:20:54;;;;;;;1.70;0.47;;;14.80;86.10;;;;;;4998758;28;20156;-73
2023/08/08 02:23:20;;;;;;;1.75;0.75;;;15.10;84.90;;;;;;4993022;28;20065;-73
2023/08/08 02:25:46;;;;;;;1.17;0.40;;;15.30;84.10;;;;;;4995094;28;20026;-73
2023/08/08 02:28:11;;;;;;;1.05;0.38;;;15.30;83.80;;;;;;4992949;28;20030;-72
2023/08/08 02:30:37;;;;;;;2.25;0.35;;;15.20;84.40;;;;;;4991729;28;20049;-73
2023/08/08 02:33:03;;;;;;;1.10;0.47;;;15.10;84.40;;;;;;4993342;28;20038;-72
2023/08/08 02:35:29;;;;;;;1.48;0.45;;;15.00;85.30;;;;;;4994283;28;20460;-73
2023/08/08 02:37:55;;;;;;;0.88;0.40;;;14.90;85.60;;;;;;4991461;28;20058;-74
2023/08/08 02:40:23;;;;;;;2.38;0.50;;;14.80;86.40;;;;;;4994722;28;20037;-73
2023/08/08 02:42:49;;;;;;;2.55;0.50;;;14.70;86.50;;;;;;4990977;28;20539;-73
2023/08/08 02:45:15;;;;;;;1.83;0.50;;;14.70;86.70;;;;;;4992146;28;20035;-73
2023/08/08 02:47:40;;;;;;;1.48;0.43;;;14.50;87.30;;;;;;4992702;28;20535;-73
2023/08/08 02:50:07;;;;;;;0.80;0.30;;;14.30;89.00;;;;;;4998058;28;20432;-72
2023/08/08 02:52:32;;;;;;;1.70;0.52;;;14.50;87.30;;;;;;4992907;28;20026;-73
2023/08/08 02:54:58;;;;;;;1.02;0.40;;;14.40;87.60;;;;;;4998067;28;20040;-73
2023/08/08 02:57:23;;;;;;;1.15;0.40;;;14.40;88.50;;;;;;4991806;28;20121;-73
2023/08/08 02:59:49;;;;;;;0.80;0.40;;;14.50;88.00;;;;;;4998992;28;20464;-73
2023/08/08 03:02:15;;;;;;;1.83;0.60;;;14.50;87.30;;;;;;4992042;28;20902;-73
2023/08/08 03:04:40;;;;;;;0.98;0.32;;;14.60;87.60;;;;;;4988206;28;20554;-73
2023/08/08 03:07:06;;;;;;;1.95;0.68;;;14.60;87.40;;;;;;4990201;28;20611;-73
2023/08/08 03:09:32;;;;;;;1.55;0.50;;;14.60;87.30;;;;;;4989414;28;20036;-73
2023/08/08 03:11:57;;;;;;;1.25;0.40;;;14.60;88.00;;;;;;4988065;28;20105;-74
2023/08/08 03:14:23;;;;;;;3.78;0.70;;;14.40;88.30;;;;;;4991064;28;20022;-73
2023/08/08 03:16:48;;;;;;;2.45;0.40;;;14.50;88.40;;;;;;4995784;28;20065;-74
2023/08/08 03:19:14;;;;;;;1.40;0.55;;;14.40;90.10;;;;;;4986401;28;20064;-74
2023/08/08 03:21:40;;;;;;;1.05;0.50;;;14.30;90.00;;;;;;4987010;28;20065;-74
2023/08/08 03:24:06;;;;;;;3.03;0.55;;;14.20;90.10;;;;;;4984703;28;20027;-74
2023/08/08 03:26:31;;;;;;;2.22;0.63;;;14.40;89.20;;;;;;4989535;28;20026;-74
2023/08/08 03:28:57;;;;;;;1.08;0.43;;;14.50;88.90;;;;;;4988455;28;20591;-73
2023/08/08 03:31:23;;;;;;;1.83;0.40;;;14.60;87.40;;;;;;4987812;28;20026;-73
2023/08/08 03:33:49;;;;;;;2.50;0.50;;;14.70;87.70;;;;;;4993574;28;20103;-74
2023/08/08 03:36:15;;;;;;;1.25;0.55;;;14.40;89.70;;;;;;4988849;28;20033;-74
2023/08/08 03:38:44;;;;;;;1.48;0.60;;;14.50;88.80;;;;;;4991622;28;20045;-73
2023/08/08 03:41:10;;;;;;;2.72;0.50;;;14.60;88.40;;;;;;4996402;28;20041;-74
2023/08/08 03:43:35;;;;;;;1.15;0.45;;;14.50;88.70;;;;;;4988262;28;20034;-72
2023/08/08 03:46:01;;;;;;;1.17;0.40;;;14.60;88.00;;;;;;4987141;28;20038;-73
2023/08/08 03:48:27;;;;;;;1.65;0.63;;;14.40;89.10;;;;;;4988655;28;20019;-73
2023/08/08 03:50:52;;;;;;;1.45;0.40;;;14.40;88.90;;;;;;4986038;28;20058;-73
2023/08/08 03:53:18;;;;;;;2.15;0.73;;;14.40;88.70;;;;;;4990345;28;20045;-73
2023/08/08 03:55:43;;;;;;;1.85;0.63;;;14.40;88.90;;;;;;4989483;28;20154;-73
2023/08/08 03:58:09;;;;;;;0.98;0.45;;;14.20;90.30;;;;;;4985094;28;20371;-73
2023/08/08 04:00:35;;;;;;;1.00;0.30;;;14.00;91.40;;;;;;4983019;28;20433;-73
2023/08/08 04:03:00;;;;;;;1.75;0.73;;;13.70;91.50;;;;;;4983877;28;20034;-73
2023/08/08 04:05:26;;;;;;;1.70;0.55;;;13.60;92.50;;;;;;4982519;28;20034;-73
2023/08/08 04:07:52;;;;;;;2.50;0.40;;;13.60;92.50;;;;;;4985750;28;20153;-75
2023/08/08 04:10:17;;;;;;;1.65;1.00;;;13.70;92.60;;;;;;4983566;28;20065;-75
2023/08/08 04:12:43;;;;;;;1.23;0.50;;;13.80;91.50;;;;;;4982160;28;20052;-75
2023/08/08 04:15:09;;;;;;;1.33;0.45;;;13.80;91.50;;;;;;4984880;28;20369;-75
2023/08/08 04:17:35;;;;;;;0.88;0.40;;;13.90;91.40;;;;;;4985297;28;20096;-75
2023/08/08 04:20:00;;;;;;;3.42;0.70;;;13.90;91.70;;;;;;4984169;28;20038;-75
2023/08/08 04:22:26;;;;;;;1.75;0.80;;;14.10;91.10;;;;;;4989164;28;20428;-74
2023/08/08 04:24:52;;;;;;;1.08;0.32;;;14.20;90.60;;;;;;4982860;28;20189;-75
2023/08/08 04:27:18;;;;;;;1.45;0.55;;;14.30;90.50;;;;;;4986090;28;20461;-74
2023/08/08 04:29:43;;;;;;;1.50;0.40;;;14.20;90.90;;;;;;4984127;28;20038;-75
2023/08/08 04:32:09;;;;;;;1.10;0.60;;;14.20;90.80;;;;;;4989247;28;20097;-75
2023/08/08 04:34:35;;;;;;;5.00;1.05;;;14.30;90.40;;;;;;4985060;28;20030;-74
2023/08/08 04:37:00;;;;;;;2.92;0.93;;;14.40;90.30;;;;;;4982272;28;20077;-75
2023/08/08 04:39:26;;;;;;;1.52;0.50;;;14.50;90.30;;;;;;4989948;28;20085;-74
2023/08/08 04:41:52;;;;;;;1.08;0.45;;;14.50;90.70;;;;;;4982810;28;20042;-74
2023/08/08 04:44:17;;;;;;;1.75;0.68;;;14.60;89.90;;;;;;4987890;28;20124;-74
2023/08/08 04:46:43;;;;;;;1.15;0.50;;;14.60;90.40;;;;;;4983757;28;20041;-75
2023/08/08 04:49:08;;;;;;;2.45;0.57;;;14.50;90.50;;;;;;4992007;28;20643;-74
2023/08/08 04:51:34;;;;;;;1.10;0.45;;;14.70;90.70;;;;;;4984888;28;20466;-74
2023/08/08 04:54:00;;;;;;;3.15;1.15;;;14.50;90.90;;;;;;4982074;28;20110;-74
2023/08/08 04:56:25;;;;;;;2.00;0.65;;;14.40;91.50;;;;;;4986198;28;20030;-74
2023/08/08 04:58:51;;;;;;;1.05;0.32;;;14.30;91.90;;;;;;4982008;28;20034;-75
2023/08/08 05:01:20;;;;;;;1.35;0.43;;;14.40;92.00;;;;;;4981140;28;21122;-75
2023/08/08 05:03:45;;;;;;;2.40;0.40;;;14.40;92.00;;;;;;4984508;28;20042;-74
2023/08/08 05:06:11;;;;;;;0.88;0.40;;;14.40;91.90;;;;;;4982421;28;20475;-74
2023/08/08 05:08:37;;;;;;;1.45;0.40;;;14.50;92.00;;;;;;4981155;28;20484;-74
2023/08/08 05:11:03;;;;;;;1.65;0.50;;;14.60;92.20;;;;;;4984456;28;20076;-74
2023/08/08 05:13:28;;;;;;;2.53;0.47;;;14.60;92.10;;;;;;4982924;28;20072;-74
2023/08/08 05:15:54;;;;;;;1.75;0.70;;;14.60;92.20;;;;;;4981326;28;20088;-74
2023/08/08 05:18:20;;;;;;;1.83;0.60;;;14.70;92.40;;;;;;4983646;28;20037;-74
2023/08/08 05:20:45;;;;;;;3.08;0.70;;;14.90;93.70;;;;;;4981968;28;20120;-74
2023/08/08 05:23:11;;;;;;;1.02;0.40;;;14.80;92.60;;;;;;4985299;28;23365;-74
2023/08/08 05:25:37;;;;;;;2.10;1.10;;;14.90;93.20;;;;;;4984953;28;20113;-73
2023/08/08 05:28:03;;;;;;;1.17;0.50;;;14.90;93.80;;;;;;4986541;28;20026;-75
2023/08/08 05:30:28;;;;;;;2.95;0.45;;;15.10;93.70;;;;;;4986470;28;20037;-74
2023/08/08 05:32:54;;;;;;;1.67;0.77;;;15.10;93.10;;;;;;4987945;28;20034;-74
2023/08/08 05:35:20;;;;;;;1.98;0.55;;;15.10;93.70;;;;;;4988056;28;20037;-74
2023/08/08 05:37:45;;;;;;;2.25;0.50;;;15.10;93.50;;;;;;4991271;28;20175;-75
2023/08/08 05:40:11;;;;;;;2.30;0.60;;;15.20;92.20;;;;;;4983596;28;20092;-74
2023/08/08 05:42:38;;;;;;;3.25;0.70;;;15.20;90.30;;;;;;4982166;28;20086;-75
2023/08/08 05:45:04;;;;;;;1.17;0.43;;;15.40;90.00;;;;;;4992984;28;20033;-74
2023/08/08 05:47:30;;;;;;;2.15;0.60;;;15.20;92.10;;;;;;4985773;28;20060;-74
2023/08/08 05:49:55;;;;;;;2.47;0.90;;;15.10;91.10;;;;;;4981485;28;20587;-74
2023/08/08 05:52:22;;;;;;;1.73;0.60;;;14.90;90.30;;;;;;4980795;28;20035;-74
2023/08/08 05:54:47;;;;;;;1.73;0.50;;;15.00;90.30;;;;;;4986045;28;20117;-74
2023/08/08 05:57:13;;;;;;;3.08;0.60;;;15.00;92.30;;;;;;4987243;28;20026;-74
2023/08/08 05:59:39;;;;;;;2.13;0.68;;;15.00;93.80;;;;;;4988156;28;20117;-75
2023/08/08 06:02:04;;;;;;;0.38;0.25;;;15.10;94.60;;;;;;4983243;28;20161;-74
2023/08/08 06:04:30;;;;;;;1.23;0.47;;;15.30;94.50;;;;;;4987641;28;20026;-74
2023/08/08 06:06:56;;;;;;;1.48;0.52;;;15.50;94.90;;;;;;4982577;28;20034;-74
2023/08/08 06:09:22;;;;;;;1.73;0.73;;;15.60;94.20;;;;;;4982904;28;20395;-74
2023/08/08 06:11:48;;;;;;;5.10;1.52;;;15.50;95.20;;;;;;4988092;28;20117;-74
2023/08/08 06:14:14;;;;;;;2.55;0.63;;;15.40;92.50;;;;;;4983467;28;20046;-74
2023/08/08 06:16:39;;;;;;;2.80;0.60;;;15.50;91.50;;;;;;4983548;28;20054;-74
2023/08/08 06:19:06;;;;;;;1.50;0.80;;;15.50;91.20;;;;;;4986095;28;20088;-74
2023/08/08 06:21:31;;;;;;;0.88;0.40;;;15.60;90.50;;;;;;4983688;28;20046;-74
2023/08/08 06:23:57;;;;;;;3.83;0.77;;;15.70;90.60;;;;;;4983695;28;20689;-75
2023/08/08 06:26:23;;;;;;;3.17;0.77;;;15.70;90.60;;;;;;4986677;28;20031;-73
2023/08/08 06:28:51;;;;;;;1.77;0.40;;;15.80;90.50;;;;;;4981225;28;20073;-73
2023/08/08 06:31:18;;;;;;;1.85;0.70;;;15.90;91.10;;;;;;4981274;28;20372;-74
2023/08/08 06:33:43;;;;;;;3.38;0.55;;;16.10;91.40;;;;;;4989543;28;20036;-76
2023/08/08 06:36:09;;;;;;;1.95;0.60;;;16.30;93.80;;;;;;4985463;28;20439;-75
2023/08/08 06:38:35;;;;;;;1.35;0.52;;;16.40;94.20;;;;;;4987891;28;20046;-75
2023/08/08 06:41:02;;;;;;;2.10;0.60;;;16.60;93.80;;;;;;4987465;28;20105;-74
2023/08/08 06:43:28;;;;;;;3.88;0.63;;;16.80;92.50;;;;;;4988941;28;20038;-74
2023/08/08 06:45:54;;;;;;;1.75;0.70;;;17.10;91.60;;;;;;4989975;28;20081;-74
2023/08/08 06:48:19;;;;;;;1.40;0.52;;;17.40;91.40;;;;;;4985493;28;20027;-74
2023/08/08 06:50:45;;;;;;;2.05;0.50;;;17.30;91.10;;;;;;4985873;28;20080;-74
2023/08/08 06:53:11;;;;;;;3.40;0.77;;;17.40;92.10;;;;;;4983670;28;20904;-74
2023/08/08 06:55:36;;;;;;;2.63;0.55;;;17.70;90.90;;;;;;4984380;28;20104;-74
2023/08/08 06:58:03;;;;;;;1.55;0.80;;;17.80;90.40;;;;;;4991496;28;20038;-75
2023/08/08 07:00:29;;;;;;;2.78;0.60;;;18.20;91.50;;;;;;4988047;28;20034;-74
2023/08/08 07:02:55;;;;;;;1.95;0.47;;;18.30;90.90;;;;;;4990027;28;20049;-74
2023/08/08 07:05:22;;;;;;;2.40;0.77;;;18.30;90.80;;;;;;4984017;28;20688;-73
2023/08/08 07:07:51;;;;;;;1.58;0.70;;;18.30;90.90;;;;;;4992562;28;20044;-74
2023/08/08 07:10:17;;;;;;;2.58;0.98;;;18.40;90.70;;;;;;4996592;28;20027;-74
2023/08/08 07:12:42;;;;;;;2.47;0.75;;;18.50;90.00;;;;;;4992317;28;20367;-74
2023/08/08 07:15:09;;;;;;;5.03;1.33;;;19.20;91.40;;;;;;4990516;28;20027;-75
2023/08/08 07:17:35;;;;;;;1.83;0.60;;;20.10;90.10;;;;;;4982762;28;20049;-75
2023/08/08 07:20:02;;;;;;;2.50;0.40;;;20.80;89.20;;;;;;4984376;28;21120;-74
2023/08/08 07:22:27;;;;;;;1.75;0.60;;;21.70;86.40;;;;;;4987226;28;20377;-75
2023/08/08 07:24:53;;;;;;;2.60;0.63;;;22.50;82.40;;;;;;4985932;28;20028;-75
2023/08/08 07:27:19;;;;;;;40.03;3.60;;;23.80;79.50;;;;;;4990148;28;20034;-74
2023/08/08 07:29:44;;;;;;;22.40;2.70;;;24.10;78.10;;;;;;4988046;28;20097;-74
2023/08/08 07:32:10;;;;;;;4.80;0.90;;;24.50;76.40;;;;;;4985926;28;20117;-74
2023/08/08 07:34:36;;;;;;;3.58;0.85;;;24.40;78.10;;;;;;4987170;28;20118;-74
2023/08/08 07:37:03;;;;;;;2.85;0.70;;;22.90;77.80;;;;;;4986824;28;20121;-75
2023/08/08 07:39:28;;;;;;;1.25;0.57;;;22.60;78.50;;;;;;4990246;28;20194;-74
2023/08/08 07:41:54;;;;;;;1.95;0.70;;;22.10;77.70;;;;;;4989117;28;20038;-74
2023/08/08 07:44:20;;;;;;;2.40;0.85;;;21.40;80.60;;;;;;4986220;28;20034;-73
2023/08/08 07:46:46;;;;;;;2.78;0.50;;;21.50;80.50;;;;;;4988263;28;20026;-74
2023/08/08 07:49:11;;;;;;;4.13;0.75;;;21.50;79.60;;;;;;4983370;28;20030;-74
2023/08/08 07:51:37;;;;;;;3.33;0.65;;;21.40;81.00;;;;;;4987531;28;20626;-72
2023/08/08 07:54:05;;;;;;;2.42;0.98;;;21.50;82.90;;;;;;4983990;28;20026;-74
2023/08/08 07:56:31;;;;;;;2.00;0.63;;;21.20;82.60;;;;;;4983021;28;20042;-75
2023/08/08 07:58:56;;;;;;;1.50;0.55;;;20.80;85.80;;;;;;4988436;28;20037;-74
2023/08/08 08:01:23;;;;;;;1.25;0.55;;;20.40;85.10;;;;;;4985047;28;20093;-74
2023/08/08 08:03:48;;;;;;;2.33;0.82;;;20.10;84.80;;;;;;4989843;28;20034;-74
2023/08/08 08:06:14;;;;;;;1.08;0.40;;;20.00;84.10;;;;;;4990617;28;20113;-72
2023/08/08 08:08:39;;;;;;;3.13;0.82;;;19.90;85.70;;;;;;4987663;28;20050;-74
2023/08/08 08:11:05;;;;;;;1.48;0.60;;;19.90;87.30;;;;;;4986916;28;20722;-74
2023/08/08 08:13:31;;;;;;;2.55;0.90;;;19.70;85.80;;;;;;4987017;28;20078;-73
2023/08/08 08:15:58;;;;;;;2.60;1.00;;;20.00;87.20;;;;;;4988213;28;20056;-73
2023/08/08 08:18:23;;;;;;;8.50;1.50;;;20.00;87.40;;;;;;4984778;28;20133;-74
2023/08/08 08:20:49;;;;;;;3.05;0.70;;;20.00;88.10;;;;;;4987056;28;20125;-74
2023/08/08 08:23:15;;;;;;;2.35;0.75;;;20.10;86.40;;;;;;4991724;28;20117;-74
2023/08/08 08:25:41;;;;;;;3.22;0.95;;;20.10;87.80;;;;;;4985225;28;20030;-74
2023/08/08 08:28:06;;;;;;;2.13;0.70;;;20.30;86.60;;;;;;4985537;28;20595;-73
2023/08/08 08:30:32;;;;;;;4.22;1.00;;;20.40;86.30;;;;;;4995839;28;20456;-74
2023/08/08 08:32:57;;;;;;;3.53;0.95;;;20.60;86.20;;;;;;4990901;28;20114;-74
2023/08/08 08:35:23;;;;;;;1.98;0.85;;;20.80;84.40;;;;;;4998236;28;20030;-74
2023/08/08 08:37:49;;;;;;;2.15;0.73;;;21.20;83.70;;;;;;4989559;28;20137;-75
2023/08/08 08:40:15;;;;;;;2.13;0.70;;;21.90;81.80;;;;;;4988237;28;20065;-74
2023/08/08 08:42:41;;;;;;;1.52;0.70;;;22.40;81.70;;;;;;4994868;28;20022;-74
2023/08/08 08:45:10;;;;;;;2.70;0.60;;;22.50;81.30;;;;;;4992010;28;20022;-74
2023/08/08 08:47:37;;;;;;;1.98;0.80;;;22.90;80.10;;;;;;4990518;28;20049;-76
2023/08/08 08:50:03;;;;;;;1.08;0.50;;;22.40;82.00;;;;;;4989143;28;20469;-75
2023/08/08 08:52:30;;;;;;;1.92;0.63;;;22.30;83.00;;;;;;4991383;28;20118;-74
2023/08/08 08:54:57;;;;;;;1.67;0.60;;;21.60;83.50;;;;;;4988890;28;20026;-74
2023/08/08 08:57:25;;;;;;;5.45;0.80;;;21.40;85.40;;;;;;4986753;28;20109;-74
2023/08/08 08:59:52;;;;;;;2.13;0.70;;;21.20;84.50;;;;;;4987800;28;20644;-74
2023/08/08 09:02:18;;;;;;;1.83;0.75;;;21.30;83.80;;;;;;4985635;28;20065;-74
2023/08/08 09:04:45;;;;;;;4.18;1.15;;;21.40;85.20;;;;;;4986723;28;20037;-73
2023/08/08 09:07:12;;;;;;;1.98;0.90;;;21.60;85.90;;;;;;4987521;28;20030;-74
2023/08/08 09:09:38;;;;;;;1.63;0.73;;;21.00;81.60;;;;;;4985442;28;20432;-74
2023/08/08 09:12:05;;;;;;;2.90;0.88;;;21.30;84.60;;;;;;4986362;28;20105;-74
2023/08/08 09:14:31;;;;;;;3.65;0.85;;;21.90;88.80;;;;;;4994130;28;20042;-74
2023/08/08 09:16:57;;;;;;;2.75;1.00;;;22.00;83.70;;;;;;4993302;28;20030;-75
2023/08/08 09:19:24;;;;;;;1.95;0.77;;;21.80;82.50;;;;;;4990832;28;20033;-75
2023/08/08 09:21:51;;;;;;;2.05;0.68;;;22.00;86.50;;;;;;4994146;28;20057;-75
2023/08/08 09:24:17;;;;;;;2.08;0.80;;;21.80;84.00;;;;;;4984793;28;20114;-75
2023/08/08 09:26:44;;;;;;;3.15;1.13;;;21.80;84.60;;;;;;4988457;28;20022;-74
2023/08/08 09:29:13;;;;;;;8.95;1.05;;;21.70;84.90;;;;;;4990060;28;20125;-74
2023/08/08 09:31:39;;;;;;;3.17;0.60;;;21.70;84.50;;;;;;4990691;28;20362;-75
2023/08/08 09:34:05;;;;;;;2.15;0.80;;;21.80;84.40;;;;;;4990398;28;20061;-74
2023/08/08 09:36:31;;;;;;;2.78;0.85;;;22.20;83.10;;;;;;4986963;28;20080;-74
2023/08/08 09:38:57;;;;;;;2.03;0.65;;;22.10;84.80;;;;;;4990128;28;20595;-74
2023/08/08 09:41:24;;;;;;;7.05;1.30;;;22.10;84.70;;;;;;4989839;28;20121;-74
2023/08/08 09:43:52;;;;;;;1.10;0.60;;;22.20;84.80;;;;;;4987388;28;20108;-73
2023/08/08 09:46:22;;;;;;;2.92;0.60;;;22.30;83.00;;;;;;4991773;28;20077;-73
2023/08/08 09:48:48;;;;;;;4.47;0.70;;;22.20;82.40;;;;;;4987356;28;20084;-74
2023/08/08 09:51:14;;;;;;;2.55;0.88;;;22.20;82.20;;;;;;4986658;28;20034;-75
2023/08/08 09:53:41;;;;;;;3.55;0.90;;;22.10;82.30;;;;;;4988608;28;20076;-74
2023/08/08 09:56:08;;;;;;;3.85;1.42;;;22.10;81.80;;;;;;4989971;28;20088;-74
2023/08/08 09:58:34;;;;;;;2.53;0.82;;;22.20;81.90;;;;;;4991318;28;20030;-73
2023/08/08 10:01:00;;;;;;;3.33;0.80;;;22.20;82.40;;;;;;4986070;28;20042;-75
2023/08/08 10:03:26;;;;;;;2.30;0.70;;;22.40;83.70;;;;;;4995020;28;20026;-75
2023/08/08 10:05:52;;;;;;;4.78;0.68;;;22.60;83.70;;;;;;4985994;28;20038;-74
2023/08/08 10:08:19;;;;;;;2.13;0.60;;;22.60;82.90;;;;;;4989538;28;20745;-74
2023/08/08 10:10:47;;;;;;;3.15;0.88;;;22.40;80.70;;;;;;4989757;28;20068;-74
2023/08/08 10:13:23;;;;;;;2.15;0.80;;;22.70;80.70;;;;;;4992450;28;20475;-74
2023/08/08 10:15:49;;;;;;;2.72;0.80;;;22.60;79.90;;;;;;4995672;28;20088;-73
2023/08/08 10:18:15;;;;;;;1.35;0.63;;;23.20;81.10;;;;;;4995007;28;20030;-75
2023/08/08 10:20:47;;;;;;;2.25;0.60;;;23.70;79.60;;;;;;4992532;28;20790;-74
2023/08/08 10:23:17;;;;;;;0.77;0.50;;;23.60;80.80;;;;;;4992995;28;20099;-74
2023/08/08 10:25:49;;;;;;;1.92;0.80;;;23.40;81.00;;;;;;4998517;28;20049;-75
2023/08/08 10:28:18;;;;;;;3.38;0.77;;;23.30;79.80;;;;;;4989881;28;20069;-74
2023/08/08 10:30:48;;;;;;;2.70;0.85;;;23.00;78.10;;;;;;4995530;28;20022;-74
2023/08/08 10:33:22;;;;;;;3.15;0.85;;;23.40;82.10;;;;;;4994008;28;20038;-73
2023/08/08 10:36:07;;;;;;;3.30;0.63;;;23.70;79.80;;;;;;4994810;28;20031;-74
2023/08/08 10:38:53;;;;;;;3.17;0.70;;;23.80;80.70;;;;;;4990624;28;20046;-74
2023/08/08 10:41:21;;;;;;;1.95;0.70;;;23.40;77.90;;;;;;4986967;28;20043;-74
2023/08/08 10:43:53;;;;;;;1.85;0.52;;;23.80;78.40;;;;;;4990508;28;20072;-75
2023/08/08 10:46:30;;;;;;;3.72;1.13;;;23.90;79.20;;;;;;4989552;28;20104;-75
2023/08/08 10:49:01;;;;;;;1.27;0.68;;;23.90;80.70;;;;;;4988718;28;20031;-75
2023/08/08 10:51:39;;;;;;;2.75;0.98;;;23.20;77.90;;;;;;4986839;28;20026;-75
2023/08/08 10:54:11;;;;;;;3.30;1.17;;;23.50;82.00;;;;;;4991373;28;20641;-75
2023/08/08 10:56:37;;;;;;;5.35;0.65;;;23.60;78.30;;;;;;4989571;28;20057;-75
2023/08/08 10:59:16;;;;;;;1.98;0.70;;;23.50;79.30;;;;;;4996975;28;20409;-74
2023/08/08 11:01:44;;;;;;;2.53;0.90;;;23.30;78.50;;;;;;4988953;28;20034;-74
2023/08/08 11:04:11;;;;;;;3.47;0.70;;;23.70;82.00;;;;;;4986768;28;20031;-74
2023/08/08 11:06:37;;;;;;;2.70;0.65;;;24.30;80.50;;;;;;4990128;28;20506;-74
2023/08/08 11:09:05;;;;;;;4.63;0.95;;;24.20;78.40;;;;;;4991947;28;21004;-75
2023/08/08 11:11:39;;;;;;;2.50;0.60;;;24.00;79.60;;;;;;4990388;28;20034;-74
2023/08/08 11:14:19;;;;;;;1.17;0.38;;;23.80;83.30;;;;;;4988706;28;20099;-73
2023/08/08 11:16:46;;;;;;;2.05;0.70;;;24.00;84.00;;;;;;4986743;28;20027;-74
2023/08/08 11:19:13;;;;;;;2.88;0.80;;;23.90;80.00;;;;;;4989381;28;20539;-74
2023/08/08 11:21:41;;;;;;;5.50;0.80;;;24.10;82.60;;;;;;4986704;28;20046;-73
2023/08/08 11:24:08;;;;;;;1.88;0.85;;;24.10;81.60;;;;;;4992461;28;20022;-74
2023/08/08 11:26:35;;;;;;;1.85;0.60;;;24.10;82.00;;;;;;4987765;28;20033;-74
2023/08/08 11:29:02;;;;;;;0.93;0.50;;;24.10;83.40;;;;;;4990398;28;20030;-74
2023/08/08 11:31:29;;;;;;;1.95;0.40;;;24.50;84.50;;;;;;4994930;28;20046;-73
2023/08/08 11:33:56;;;;;;;1.98;0.60;;;24.20;81.30;;;;;;4987847;28;20137;-74
2023/08/08 11:36:23;;;;;;;1.38;0.70;;;24.00;81.20;;;;;;4992184;28;20026;-74
2023/08/08 11:38:50;;;;;;;3.70;1.17;;;24.10;82.00;;;;;;4991338;28;20091;-73
2023/08/08 11:41:17;;;;;;;3.58;0.70;;;24.20;82.60;;;;;;4986840;28;20042;-74
2023/08/08 11:43:44;;;;;;;4.43;1.10;;;24.30;83.10;;;;;;4991000;28;20027;-74
2023/08/08 11:46:13;;;;;;;1.60;0.55;;;24.20;82.80;;;;;;4985893;28;20532;-74
2023/08/08 11:48:39;;;;;;;2.67;0.80;;;24.30;81.40;;;;;;4991651;28;20120;-74
2023/08/08 11:51:05;;;;;;;1.65;0.60;;;24.10;81.40;;;;;;4996149;28;20045;-74
2023/08/08 11:53:31;;;;;;;2.40;0.80;;;24.60;81.20;;;;;;4990239;28;20026;-73
2023/08/08 11:55:59;;;;;;;1.20;0.50;;;24.80;82.80;;;;;;4991051;28;20038;-73
2023/08/08 11:58:25;;;;;;;2.60;1.17;;;25.20;84.70;;;;;;4987214;28;20026;-74
2023/08/08 12:00:51;;;;;;;1.20;0.52;;;25.10;81.70;;;;;;4988579;28;20045;-74
2023/08/08 12:03:18;;;;;;;2.38;0.70;;;25.10;82.70;;;;;;4992599;28;20121;-73
2023/08/08 12:05:48;;;;;;;1.38;0.50;;;24.90;83.00;;;;;;4987443;28;20084;-74
2023/08/08 12:08:17;;;;;;;3.85;0.65;;;25.10;84.90;;;;;;4988038;28;20022;-74
2023/08/08 12:10:49;;;;;;;1.67;0.73;;;25.30;84.80;;;;;;4988183;28;20480;-74
2023/08/08 12:13:15;;;;;;;1.15;0.40;;;25.30;85.50;;;;;;4986345;28;20089;-73
2023/08/08 12:15:42;;;;;;;6.97;0.80;;;25.40;84.10;;;;;;4990765;28;20608;-74
2023/08/08 12:18:08;;;;;;;2.58;0.60;;;24.90;84.20;;;;;;4987871;28;20089;-74
2023/08/08 12:20:34;;;;;;;1.42;0.55;;;24.90;88.00;;;;;;4988917;28;20042;-74
2023/08/08 12:23:00;;;;;;;2.20;0.82;;;24.90;89.40;;;;;;4992021;28;20069;-74
2023/08/08 12:25:25;;;;;;;1.98;0.60;;;24.60;84.70;;;;;;4989721;28;20547;-74
2023/08/08 12:27:51;;;;;;;2.13;0.80;;;24.90;85.70;;;;;;4992182;28;20565;-74
2023/08/08 12:30:17;;;;;;;1.95;0.65;;;24.90;87.70;;;;;;4994034;28;20022;-73
2023/08/08 12:32:42;;;;;;;1.20;0.38;;;24.80;86.70;;;;;;4987126;28;20057;-74
2023/08/08 12:35:08;;;;;;;2.67;0.80;;;24.60;83.70;;;;;;4987756;28;20030;-74
2023/08/08 12:37:34;;;;;;;2.67;0.95;;;24.70;85.80;;;;;;4988807;28;20058;-74
2023/08/08 12:40:00;;;;;;;2.25;0.60;;;24.60;86.70;;;;;;4993435;28;20104;-74
2023/08/08 12:42:25;;;;;;;3.95;1.17;;;24.60;85.80;;;;;;4991173;28;20045;-74
2023/08/08 12:44:53;;;;;;;4.00;0.60;;;24.40;86.10;;;;;;4985088;28;20496;-73